Time;durP1;ratioP1;P1;durP2;ratioP2;P2;SDS_P1;SDS_P2;PMS_P1;PMS_P2;Temp;Humidity;BMP_temperature;BMP_pressure;BME280_temperature;BME280_humidity;BME280_pressure;Samples;Min_cycle;Max_cycle;Signal;HPM_P1;HPM_P2
2023/02/03 00:01:18;;;;;;;3.42;1.45;;;17.40;54.30;;;;;;5112485;28;20172;-59
2023/02/03 00:03:44;;;;;;;4.40;1.55;;;17.40;54.30;;;;;;5113243;28;20564;-59
2023/02/03 00:06:09;;;;;;;2.50;1.50;;;17.40;54.30;;;;;;5113107;28;20615;-59
2023/02/03 00:08:36;;;;;;;3.00;0.95;;;17.40;54.30;;;;;;5112069;28;20181;-60
2023/02/03 00:11:01;;;;;;;2.28;1.45;;;17.40;54.40;;;;;;5095382;28;20264;-59
2023/02/03 00:13:27;;;;;;;1.95;1.20;;;17.40;54.30;;;;;;5094938;28;20211;-59
2023/02/03 00:15:52;;;;;;;1.55;1.17;;;17.40;54.30;;;;;;5112465;28;20247;-59
2023/02/03 00:18:18;;;;;;;3.13;1.60;;;17.40;55.00;;;;;;5112752;28;20244;-59
2023/02/03 00:20:43;;;;;;;2.85;1.55;;;17.40;54.30;;;;;;5113236;28;20165;-59
2023/02/03 00:23:09;;;;;;;1.95;1.20;;;17.40;54.30;;;;;;5112571;28;20169;-58
2023/02/03 00:25:35;;;;;;;2.80;1.27;;;17.30;54.30;;;;;;5112930;28;20173;-59
2023/02/03 00:28:01;;;;;;;4.07;1.80;;;17.30;54.30;;;;;;5112992;28;20222;-58
2023/02/03 00:30:28;;;;;;;2.15;1.30;;;17.30;54.30;;;;;;5111875;28;20197;-59
2023/02/03 00:32:54;;;;;;;3.40;1.80;;;17.30;54.40;;;;;;5113021;28;20213;-59
2023/02/03 00:35:19;;;;;;;2.42;1.35;;;17.30;54.30;;;;;;5112492;28;20239;-59
2023/02/03 00:37:52;;;;;;;2.22;1.38;;;17.30;54.30;;;;;;5112116;28;20627;-59
2023/02/03 00:40:18;;;;;;;4.50;1.48;;;17.30;54.30;;;;;;5112624;28;20188;-59
2023/02/03 00:42:44;;;;;;;2.30;1.33;;;17.30;54.30;;;;;;5112988;28;20197;-59
2023/02/03 00:45:09;;;;;;;2.22;1.40;;;17.30;54.30;;;;;;5112014;28;20227;-59
2023/02/03 00:47:35;;;;;;;2.75;1.30;;;17.30;54.30;;;;;;5112617;28;20177;-58
2023/02/03 00:50:00;;;;;;;3.67;1.30;;;17.30;54.90;;;;;;5112547;28;20174;-59
2023/02/03 00:52:26;;;;;;;2.78;1.38;;;17.20;54.20;;;;;;5111990;28;20238;-58
2023/02/03 00:54:51;;;;;;;2.60;1.33;;;17.20;54.30;;;;;;5112861;28;20587;-59
2023/02/03 00:57:17;;;;;;;2.38;1.48;;;17.20;54.30;;;;;;5112584;28;20651;-58
2023/02/03 00:59:42;;;;;;;3.78;1.30;;;17.20;54.20;;;;;;5114559;28;20177;-58
2023/02/03 01:02:08;;;;;;;3.88;1.60;;;17.20;54.20;;;;;;5116497;28;20248;-59
2023/02/03 01:04:33;;;;;;;3.60;1.95;;;17.20;54.30;;;;;;5115442;28;20639;-59
2023/02/03 01:06:59;;;;;;;3.50;1.50;;;17.20;54.30;;;;;;5116346;28;20687;-59
2023/02/03 01:09:25;;;;;;;3.65;1.40;;;17.20;54.30;;;;;;5116232;28;20260;-58
2023/02/03 01:11:50;;;;;;;2.22;1.33;;;17.20;54.40;;;;;;5115740;28;20646;-58
2023/02/03 01:14:16;;;;;;;3.47;1.45;;;17.10;54.30;;;;;;5116212;28;20675;-59
2023/02/03 01:16:41;;;;;;;3.92;1.65;;;17.20;54.50;;;;;;5116199;28;20256;-59
2023/02/03 01:19:07;;;;;;;3.45;1.40;;;17.20;54.30;;;;;;5115270;28;20304;-58
2023/02/03 01:21:32;;;;;;;3.25;1.65;;;17.20;54.90;;;;;;5116011;28;20623;-58
2023/02/03 01:23:58;;;;;;;3.05;1.73;;;17.10;54.20;;;;;;5116187;28;20176;-59
2023/02/03 01:26:24;;;;;;;2.90;1.60;;;17.10;54.20;;;;;;5115123;28;20700;-58
2023/02/03 01:28:51;;;;;;;4.40;1.15;;;17.10;54.20;;;;;;5116192;28;20639;-58
2023/02/03 01:31:18;;;;;;;3.50;1.85;;;17.10;54.20;;;;;;5115833;28;20181;-58
2023/02/03 01:33:47;;;;;;;2.08;1.38;;;17.10;54.20;;;;;;5115108;28;20177;-58
2023/02/03 01:36:14;;;;;;;3.22;1.70;;;17.10;54.20;;;;;;5115952;28;20291;-59
2023/02/03 01:38:39;;;;;;;3.65;1.27;;;17.10;54.30;;;;;;5115683;28;20182;-58
2023/02/03 01:41:08;;;;;;;2.95;1.58;;;17.10;54.20;;;;;;5114898;28;20184;-59
2023/02/03 01:43:41;;;;;;;2.38;1.17;;;17.10;54.30;;;;;;5097116;28;20181;-59
2023/02/03 01:46:26;;;;;;;2.97;1.52;;;17.10;54.30;;;;;;5115560;28;20588;-58
2023/02/03 01:48:53;;;;;;;2.33;1.40;;;17.00;54.20;;;;;;5096889;28;20173;-58
2023/02/03 01:51:19;;;;;;;3.20;1.40;;;17.10;54.10;;;;;;5097060;28;20243;-58
2023/02/03 01:53:44;;;;;;;4.95;1.90;;;17.00;54.10;;;;;;5096690;28;20173;-58
2023/02/03 01:56:10;;;;;;;2.75;1.70;;;17.00;54.20;;;;;;5097205;28;20231;-58
2023/02/03 01:58:37;;;;;;;4.03;1.63;;;17.00;54.20;;;;;;5096987;28;20534;-58
2023/02/03 02:01:02;;;;;;;2.38;1.45;;;17.00;54.10;;;;;;5079909;28;20192;-58
2023/02/03 02:03:43;;;;;;;1.80;1.48;;;17.00;54.10;;;;;;5115138;28;20173;-58
2023/02/03 02:06:11;;;;;;;3.65;1.52;;;17.00;54.20;;;;;;5115423;28;20215;-59
2023/02/03 02:08:36;;;;;;;2.80;1.40;;;17.00;54.10;;;;;;5114234;28;20177;-58
2023/02/03 02:11:02;;;;;;;3.35;1.70;;;17.00;54.20;;;;;;5114268;28;20223;-58
2023/02/03 02:13:29;;;;;;;3.83;1.70;;;17.00;54.10;;;;;;5114713;28;20313;-58
2023/02/03 02:15:57;;;;;;;4.53;1.48;;;17.00;54.10;;;;;;5114372;28;20300;-59
2023/02/03 02:18:27;;;;;;;3.95;1.70;;;17.00;54.10;;;;;;5114761;28;20228;-58
2023/02/03 02:21:15;;;;;;;4.05;1.70;;;17.00;54.10;;;;;;5097315;28;20184;-58
2023/02/03 02:23:43;;;;;;;4.57;2.03;;;16.90;54.00;;;;;;5064034;28;20646;-58
2023/02/03 02:26:29;;;;;;;3.28;1.58;;;17.00;54.10;;;;;;5115071;28;20169;-58
2023/02/03 02:29:13;;;;;;;2.83;1.30;;;16.90;54.20;;;;;;5113320;28;20275;-58
2023/02/03 02:32:01;;;;;;;1.30;1.20;;;16.90;54.10;;;;;;5114501;28;20184;-58
2023/02/03 02:34:39;;;;;;;3.60;1.85;;;16.90;54.10;;;;;;5099178;28;20209;-59
2023/02/03 02:37:34;;;;;;;2.78;1.60;;;16.90;54.10;;;;;;5096016;28;20605;-59
2023/02/03 02:40:35;;;;;;;4.13;1.50;;;16.90;54.10;;;;;;5096445;28;20174;-58
2023/02/03 02:43:10;;;;;;;3.25;1.33;;;16.90;54.10;;;;;;5027567;28;20235;-58
2023/02/03 02:45:39;;;;;;;4.03;1.63;;;16.90;54.20;;;;;;5114335;28;20582;-58
2023/02/03 02:48:08;;;;;;;2.97;1.50;;;16.90;54.20;;;;;;5114649;28;20264;-58
2023/02/03 02:50:38;;;;;;;2.75;1.30;;;16.90;54.20;;;;;;5078755;28;20635;-58
2023/02/03 02:53:03;;;;;;;3.88;1.65;;;16.90;54.20;;;;;;5079736;28;20267;-58
2023/02/03 02:55:30;;;;;;;2.25;1.30;;;16.90;54.20;;;;;;5095912;28;20224;-57
2023/02/03 02:57:57;;;;;;;2.28;1.40;;;16.80;54.10;;;;;;5095615;28;20177;-59
2023/02/03 03:00:23;;;;;;;2.30;1.30;;;16.90;54.20;;;;;;5095859;28;20181;-58
2023/02/03 03:02:48;;;;;;;3.50;1.63;;;16.90;54.10;;;;;;5114092;28;20697;-59
2023/02/03 03:05:14;;;;;;;3.15;1.48;;;16.80;54.10;;;;;;5113400;28;20173;-59
2023/02/03 03:07:49;;;;;;;3.50;1.48;;;16.90;54.20;;;;;;5095489;28;20183;-59
2023/02/03 03:10:17;;;;;;;2.95;1.35;;;16.80;54.10;;;;;;5096074;28;20177;-59
2023/02/03 03:12:52;;;;;;;2.65;1.10;;;16.80;54.10;;;;;;5095619;28;20180;-59
2023/02/03 03:15:21;;;;;;;2.67;1.45;;;16.80;54.10;;;;;;5095545;28;20204;-59
2023/02/03 03:18:08;;;;;;;1.77;1.23;;;16.80;54.20;;;;;;5095884;28;20220;-59
2023/02/03 03:20:34;;;;;;;2.92;1.50;;;16.80;54.10;;;;;;5079235;28;20189;-59
2023/02/03 03:23:03;;;;;;;2.92;1.33;;;16.80;54.20;;;;;;5113790;28;20225;-59
2023/02/03 03:25:36;;;;;;;3.13;1.40;;;16.70;54.10;;;;;;5112861;28;20184;-58
2023/02/03 03:28:03;;;;;;;3.60;1.27;;;16.70;54.10;;;;;;5095711;28;20173;-59
2023/02/03 03:30:32;;;;;;;1.77;1.25;;;16.80;54.20;;;;;;5095482;28;20189;-58
2023/02/03 03:32:57;;;;;;;2.85;1.40;;;16.80;54.20;;;;;;5078421;28;20180;-59
2023/02/03 03:35:23;;;;;;;3.75;1.30;;;16.80;54.20;;;;;;5113257;28;20212;-59
2023/02/03 03:38:03;;;;;;;2.72;1.33;;;16.80;54.20;;;;;;5078946;28;20196;-59
2023/02/03 03:40:32;;;;;;;1.85;1.35;;;16.80;54.20;;;;;;5079424;28;20670;-59
2023/02/03 03:43:31;;;;;;;2.72;1.50;;;16.80;54.10;;;;;;5095676;28;20173;-59
2023/02/03 03:46:01;;;;;;;3.40;1.30;;;16.70;54.20;;;;;;5041049;28;20185;-59
2023/02/03 03:48:32;;;;;;;6.63;1.70;;;16.80;54.20;;;;;;5077950;28;20180;-59
2023/02/03 03:51:09;;;;;;;2.15;1.30;;;16.70;54.10;;;;;;5079270;28;20184;-59
2023/02/03 03:53:36;;;;;;;4.20;1.73;;;16.70;54.10;;;;;;5078239;28;20265;-58
2023/02/03 03:56:01;;;;;;;2.45;1.20;;;16.70;54.10;;;;;;5078571;28;20211;-59
2023/02/03 03:58:30;;;;;;;3.72;1.17;;;16.70;54.20;;;;;;5078340;28;20173;-59
2023/02/03 04:00:58;;;;;;;3.33;1.73;;;16.70;54.10;;;;;;5112774;28;20177;-59
2023/02/03 04:03:27;;;;;;;2.00;1.42;;;16.70;54.10;;;;;;5094965;28;20177;-60
2023/02/03 04:05:52;;;;;;;3.00;1.13;;;16.70;54.10;;;;;;5078660;28;20256;-60
2023/02/03 04:08:18;;;;;;;2.47;1.40;;;16.70;54.20;;;;;;5112474;28;20698;-60
2023/02/03 04:10:44;;;;;;;4.00;1.40;;;16.70;54.20;;;;;;5113405;28;20181;-59
2023/02/03 04:13:10;;;;;;;2.55;1.15;;;16.70;54.20;;;;;;5095150;28;20173;-59
2023/02/03 04:15:35;;;;;;;2.10;1.35;;;16.70;54.10;;;;;;5112092;28;20561;-59
2023/02/03 04:18:01;;;;;;;3.53;1.50;;;16.70;54.20;;;;;;5112974;28;20265;-59
2023/02/03 04:20:28;;;;;;;3.80;1.30;;;16.70;54.10;;;;;;5112761;28;20173;-59
2023/02/03 04:22:53;;;;;;;2.30;1.10;;;16.70;54.20;;;;;;5112601;28;20173;-59
2023/02/03 04:25:19;;;;;;;2.63;1.42;;;16.70;54.10;;;;;;5112824;28;20177;-59
2023/02/03 04:27:44;;;;;;;4.43;2.03;;;16.60;54.10;;;;;;5113082;28;20260;-58
2023/02/03 04:30:11;;;;;;;2.88;1.38;;;16.70;54.10;;;;;;5112482;28;20177;-58
2023/02/03 04:32:36;;;;;;;3.83;1.50;;;16.70;54.10;;;;;;5112874;28;21061;-60
2023/02/03 04:35:03;;;;;;;1.70;1.05;;;16.60;54.10;;;;;;5116036;28;20666;-58
2023/02/03 04:37:28;;;;;;;2.40;1.50;;;16.60;54.10;;;;;;5115915;28;20633;-58
2023/02/03 04:39:57;;;;;;;2.50;1.50;;;16.60;54.00;;;;;;5117070;28;20177;-58
2023/02/03 04:42:22;;;;;;;1.77;1.27;;;16.60;54.10;;;;;;5116549;28;20649;-58
2023/02/03 04:44:48;;;;;;;3.03;1.35;;;16.60;54.00;;;;;;5116100;28;20177;-58
2023/02/03 04:47:14;;;;;;;2.45;1.40;;;16.60;54.10;;;;;;5116999;28;20635;-58
2023/02/03 04:49:39;;;;;;;3.97;1.30;;;16.60;54.10;;;;;;5115679;28;20177;-58
2023/02/03 04:52:05;;;;;;;3.92;1.30;;;16.60;54.10;;;;;;5116796;28;20172;-58
2023/02/03 04:54:30;;;;;;;2.47;1.35;;;16.60;54.10;;;;;;5116244;28;20607;-57
2023/02/03 04:56:56;;;;;;;2.83;1.20;;;16.60;54.10;;;;;;5115817;28;20218;-58
2023/02/03 04:59:22;;;;;;;2.30;1.40;;;16.60;54.10;;;;;;5116245;28;20169;-58
2023/02/03 05:01:47;;;;;;;2.95;1.38;;;16.60;54.20;;;;;;5116576;28;20169;-58
2023/02/03 05:04:13;;;;;;;3.15;1.27;;;16.60;54.20;;;;;;5115670;28;20214;-58
2023/02/03 05:06:38;;;;;;;2.67;1.08;;;16.60;54.20;;;;;;5116318;28;20161;-58
2023/02/03 05:09:04;;;;;;;3.97;1.67;;;16.60;54.20;;;;;;5116510;28;20173;-58
2023/02/03 05:11:29;;;;;;;1.70;1.10;;;16.60;54.20;;;;;;5115427;28;20226;-58
2023/02/03 05:13:55;;;;;;;4.70;1.40;;;16.50;54.20;;;;;;5116428;28;20179;-58
2023/02/03 05:16:20;;;;;;;3.13;1.35;;;16.60;54.20;;;;;;5116030;28;20569;-58
2023/02/03 05:18:46;;;;;;;2.97;1.50;;;16.50;54.10;;;;;;5115287;28;20240;-58
2023/02/03 05:21:11;;;;;;;5.68;1.63;;;16.50;54.10;;;;;;5116368;28;20177;-58
2023/02/03 05:23:37;;;;;;;2.15;1.27;;;16.50;54.20;;;;;;5115901;28;20173;-58
2023/02/03 05:26:03;;;;;;;2.78;1.33;;;16.50;54.20;;;;;;5115501;28;20161;-58
2023/02/03 05:28:29;;;;;;;2.60;1.60;;;16.50;54.20;;;;;;5115607;28;20539;-58
2023/02/03 05:30:57;;;;;;;1.98;1.20;;;16.50;54.20;;;;;;5115930;28;20172;-58
2023/02/03 05:33:23;;;;;;;2.35;1.25;;;16.50;54.30;;;;;;5114974;28;20184;-58
2023/02/03 05:35:48;;;;;;;1.92;1.13;;;16.50;54.30;;;;;;5115956;28;20555;-58
2023/02/03 05:38:14;;;;;;;3.58;1.33;;;16.50;54.30;;;;;;5116045;28;20191;-58
2023/02/03 05:43:24;;;;;;;2.17;1.35;;;16.50;54.30;;;;;;5115613;28;20188;-58
2023/02/03 05:45:49;;;;;;;3.35;1.33;;;16.50;54.20;;;;;;5113496;28;20177;-59
2023/02/03 05:48:15;;;;;;;2.75;1.27;;;16.50;54.20;;;;;;5115843;28;20244;-60
2023/02/03 05:50:40;;;;;;;2.60;1.27;;;16.50;54.20;;;;;;5115497;28;20177;-59
2023/02/03 05:53:06;;;;;;;2.60;1.30;;;16.50;54.30;;;;;;5114999;28;20169;-58
2023/02/03 05:55:32;;;;;;;2.80;1.13;;;16.50;54.20;;;;;;5115049;28;20690;-58
2023/02/03 05:57:58;;;;;;;3.10;1.30;;;16.50;54.30;;;;;;5115437;28;20180;-58
2023/02/03 06:00:24;;;;;;;2.03;1.08;;;16.50;54.20;;;;;;5114209;28;20188;-60
2023/02/03 06:02:51;;;;;;;3.50;1.33;;;16.40;54.20;;;;;;5115623;28;20514;-60
2023/02/03 06:05:17;;;;;;;2.70;1.45;;;16.50;54.30;;;;;;5115118;28;20177;-59
2023/02/03 06:07:42;;;;;;;1.85;1.17;;;16.50;55.00;;;;;;5114712;28;20169;-58
2023/02/03 06:10:08;;;;;;;3.17;1.20;;;16.40;54.20;;;;;;5115259;28;20588;-59
2023/02/03 06:12:34;;;;;;;2.05;1.10;;;16.40;54.20;;;;;;5114878;28;20651;-61
2023/02/03 06:14:59;;;;;;;1.67;1.10;;;16.40;54.20;;;;;;5114215;28;20197;-58
2023/02/03 06:17:25;;;;;;;2.58;1.50;;;16.40;54.20;;;;;;5114498;28;20169;-58
2023/02/03 06:19:50;;;;;;;2.65;1.20;;;16.40;54.30;;;;;;5115150;28;20230;-59
2023/02/03 06:22:16;;;;;;;3.78;1.75;;;16.50;54.30;;;;;;5114509;28;20173;-60
2023/02/03 06:24:43;;;;;;;3.40;1.30;;;16.40;54.20;;;;;;5115685;28;20173;-59
2023/02/03 06:27:09;;;;;;;1.77;1.20;;;16.40;54.20;;;;;;5114863;28;20636;-60
2023/02/03 06:29:34;;;;;;;2.83;1.00;;;16.30;54.20;;;;;;5113779;28;20195;-58
2023/02/03 06:32:00;;;;;;;1.83;1.27;;;16.40;54.30;;;;;;5114672;28;20174;-59
2023/02/03 06:34:25;;;;;;;1.98;1.27;;;16.40;54.20;;;;;;5114260;28;20257;-59
2023/02/03 06:36:51;;;;;;;3.25;1.42;;;16.40;54.20;;;;;;5114124;28;20173;-60
2023/02/03 06:39:16;;;;;;;3.15;1.30;;;16.40;54.30;;;;;;5114499;28;20310;-60
2023/02/03 06:41:42;;;;;;;2.47;1.30;;;16.40;54.30;;;;;;5114619;28;20256;-60
2023/02/03 06:44:07;;;;;;;3.67;1.80;;;16.40;54.30;;;;;;5113607;28;20242;-59
2023/02/03 06:46:33;;;;;;;2.92;1.30;;;16.40;54.40;;;;;;5114390;28;20212;-59
2023/02/03 06:48:58;;;;;;;4.65;1.60;;;16.40;54.30;;;;;;5114525;28;20214;-59
2023/02/03 06:51:24;;;;;;;4.70;1.40;;;16.40;54.20;;;;;;5113336;28;20257;-59
2023/02/03 06:53:49;;;;;;;2.13;1.33;;;16.40;54.30;;;;;;5114446;28;20176;-59
2023/02/03 06:56:15;;;;;;;1.58;1.00;;;16.30;54.20;;;;;;5113242;28;20225;-59
2023/02/03 06:58:41;;;;;;;2.13;1.27;;;16.40;54.30;;;;;;5113840;28;20172;-59
2023/02/03 07:01:06;;;;;;;3.53;1.27;;;16.30;54.20;;;;;;5114317;28;20258;-59
2023/02/03 07:03:32;;;;;;;2.25;1.05;;;16.40;54.20;;;;;;5113261;28;20169;-59
2023/02/03 07:05:57;;;;;;;2.03;1.30;;;16.40;54.20;;;;;;5114225;28;20529;-59
2023/02/03 07:08:23;;;;;;;2.97;1.30;;;16.40;54.10;;;;;;5113758;28;20635;-59
2023/02/03 07:10:53;;;;;;;2.83;1.08;;;16.50;54.10;;;;;;5113143;28;20165;-59
2023/02/03 07:13:18;;;;;;;3.05;1.48;;;16.50;54.10;;;;;;5113678;28;20637;-59
2023/02/03 07:15:44;;;;;;;3.10;1.38;;;16.50;54.10;;;;;;5113730;28;20634;-59
2023/02/03 07:18:09;;;;;;;2.45;1.20;;;16.50;54.00;;;;;;5113195;28;20228;-58
2023/02/03 07:20:35;;;;;;;3.85;1.38;;;16.50;54.10;;;;;;5113740;28;20584;-58
2023/02/03 07:23:00;;;;;;;2.78;1.35;;;16.50;54.10;;;;;;5113809;28;20688;-57
2023/02/03 07:25:26;;;;;;;5.05;1.40;;;16.50;54.10;;;;;;5112786;28;20639;-57
2023/02/03 07:27:52;;;;;;;3.03;1.10;;;16.50;54.10;;;;;;5113712;28;20169;-57
2023/02/03 07:30:17;;;;;;;2.78;1.50;;;16.50;54.10;;;;;;5113306;28;20173;-57
2023/02/03 07:32:49;;;;;;;2.38;1.10;;;16.50;54.20;;;;;;5113186;28;20264;-59
2023/02/03 07:35:15;;;;;;;4.68;1.60;;;16.50;54.10;;;;;;5113593;28;20208;-59
2023/02/03 07:37:41;;;;;;;3.20;1.10;;;16.50;54.00;;;;;;5113576;28;20173;-59
2023/02/03 07:40:08;;;;;;;3.13;1.20;;;16.50;54.00;;;;;;5112855;28;20181;-59
2023/02/03 07:42:34;;;;;;;2.75;1.40;;;16.60;54.00;;;;;;5113018;28;20188;-59
2023/02/03 07:44:59;;;;;;;2.60;1.17;;;16.60;54.00;;;;;;5113813;28;20169;-59
2023/02/03 07:47:25;;;;;;;2.95;1.40;;;16.60;54.00;;;;;;5112628;28;20189;-59
2023/02/03 07:49:50;;;;;;;2.05;1.10;;;16.50;54.00;;;;;;5113514;28;20506;-59
2023/02/03 07:52:16;;;;;;;4.00;1.25;;;16.50;54.00;;;;;;5113171;28;20645;-59
2023/02/03 07:54:41;;;;;;;2.53;1.30;;;16.60;54.10;;;;;;5112537;28;20200;-59
2023/02/03 07:57:07;;;;;;;2.42;1.25;;;16.50;54.10;;;;;;5113286;28;20177;-59
2023/02/03 07:59:32;;;;;;;1.40;1.10;;;16.50;54.10;;;;;;5112585;28;20172;-59
2023/02/03 08:01:58;;;;;;;1.50;0.90;;;16.50;54.10;;;;;;5113464;28;20177;-59
2023/02/03 08:04:23;;;;;;;3.35;1.65;;;16.60;54.10;;;;;;5113123;28;20188;-60
2023/02/03 08:06:49;;;;;;;3.00;1.30;;;16.60;54.10;;;;;;5112574;28;20165;-59
2023/02/03 08:09:14;;;;;;;2.40;0.90;;;16.60;54.00;;;;;;5115452;28;20199;-59
2023/02/03 08:11:40;;;;;;;3.42;1.30;;;16.60;54.00;;;;;;5117334;28;20169;-59
2023/02/03 08:14:06;;;;;;;2.95;1.50;;;16.60;53.90;;;;;;5116825;28;20177;-59
2023/02/03 08:16:31;;;;;;;2.20;1.30;;;16.60;53.90;;;;;;5117253;28;20176;-59
2023/02/03 08:18:57;;;;;;;3.42;1.27;;;16.60;54.00;;;;;;5117160;28;20212;-59
2023/02/03 08:21:22;;;;;;;2.13;1.10;;;16.60;54.00;;;;;;5116347;28;20180;-58
2023/02/03 08:23:48;;;;;;;2.20;1.23;;;16.60;54.10;;;;;;5117289;28;20169;-59
2023/02/03 08:26:13;;;;;;;1.98;1.15;;;16.50;54.10;;;;;;5117320;28;20181;-59
2023/02/03 08:28:39;;;;;;;2.25;1.08;;;16.50;54.20;;;;;;5116405;28;20173;-59
2023/02/03 08:31:11;;;;;;;2.30;1.23;;;16.50;54.20;;;;;;5117300;28;20547;-59
2023/02/03 08:33:36;;;;;;;3.30;1.33;;;16.50;54.10;;;;;;5117029;28;20170;-59
2023/02/03 08:36:02;;;;;;;2.72;1.63;;;16.60;54.10;;;;;;5116144;28;20257;-59
2023/02/03 08:38:27;;;;;;;2.97;1.20;;;16.60;54.00;;;;;;5116723;28;20260;-59
2023/02/03 08:40:53;;;;;;;2.00;1.02;;;16.60;54.00;;;;;;5117089;28;20681;-59
2023/02/03 08:43:19;;;;;;;3.15;1.17;;;16.60;54.00;;;;;;5116082;28;20234;-59
2023/02/03 08:45:44;;;;;;;1.85;0.98;;;16.60;54.00;;;;;;5116932;28;20320;-64
2023/02/03 08:48:10;;;;;;;1.73;1.15;;;16.60;54.00;;;;;;5116919;28;20180;-67
2023/02/03 08:50:35;;;;;;;2.38;1.13;;;16.60;54.10;;;;;;5115683;28;20176;-71
2023/02/03 08:53:01;;;;;;;2.92;1.63;;;16.60;54.00;;;;;;5116767;28;20749;-67
2023/02/03 08:55:26;;;;;;;4.07;1.20;;;16.60;54.20;;;;;;5116109;28;20602;-67
2023/02/03 08:57:52;;;;;;;2.92;1.25;;;16.60;54.30;;;;;;5115581;28;20196;-67
2023/02/03 09:00:18;;;;;;;3.50;1.17;;;16.50;54.50;;;;;;5116498;28;20305;-68
2023/02/03 09:02:43;;;;;;;1.95;1.30;;;16.60;54.50;;;;;;5115933;28;20538;-68
2023/02/03 09:05:09;;;;;;;2.05;1.23;;;16.60;54.30;;;;;;5116487;28;20627;-69
2023/02/03 09:07:34;;;;;;;3.22;1.30;;;16.60;54.30;;;;;;5116280;28;20172;-68
2023/02/03 09:10:00;;;;;;;2.33;1.20;;;16.60;54.40;;;;;;5115692;28;20161;-67
2023/02/03 09:12:25;;;;;;;1.70;1.15;;;16.60;54.40;;;;;;5116248;28;20177;-68
2023/02/03 09:14:51;;;;;;;1.15;1.02;;;16.60;55.00;;;;;;5116323;28;20205;-68
2023/02/03 09:17:17;;;;;;;2.05;1.17;;;16.60;54.50;;;;;;5115469;28;20175;-69
2023/02/03 09:19:42;;;;;;;3.90;1.92;;;16.60;54.70;;;;;;5115650;28;20710;-68
2023/02/03 09:22:08;;;;;;;3.75;1.20;;;16.60;54.80;;;;;;5116222;28;20169;-67
2023/02/03 09:24:33;;;;;;;2.33;1.23;;;16.60;54.90;;;;;;5114963;28;20173;-68
2023/02/03 09:27:00;;;;;;;2.78;1.10;;;16.50;54.80;;;;;;5116277;28;20699;-68
2023/02/03 09:29:26;;;;;;;3.25;1.20;;;16.50;54.80;;;;;;5115883;28;20540;-69
2023/02/03 09:31:51;;;;;;;3.42;1.52;;;16.50;54.80;;;;;;5115341;28;20651;-69
2023/02/03 09:34:19;;;;;;;5.10;1.40;;;16.60;54.90;;;;;;5115651;28;20177;-68
2023/02/03 09:36:45;;;;;;;2.97;1.60;;;16.60;54.80;;;;;;5115871;28;20655;-69
2023/02/03 09:39:10;;;;;;;3.30;1.35;;;16.60;54.90;;;;;;5114828;28;20200;-65
2023/02/03 09:41:57;;;;;;;2.85;1.27;;;16.60;55.10;;;;;;5115652;28;20180;-69
2023/02/03 09:45:03;;;;;;;3.78;1.10;;;16.70;55.00;;;;;;5115359;28;20580;-67
2023/02/03 09:47:33;;;;;;;2.97;0.95;;;16.70;55.00;;;;;;5097137;28;20181;-67
2023/02/03 09:50:23;;;;;;;2.97;1.30;;;16.60;55.00;;;;;;5081211;28;20170;-67
2023/02/03 09:52:49;;;;;;;2.88;1.33;;;16.70;55.00;;;;;;5114193;28;20181;-67
2023/02/03 09:55:44;;;;;;;4.03;1.27;;;16.70;55.10;;;;;;5097605;28;20223;-66
2023/02/03 09:58:12;;;;;;;5.63;1.70;;;16.70;55.00;;;;;;5093339;28;20185;-64
2023/02/03 10:00:43;;;;;;;3.30;1.42;;;16.80;55.00;;;;;;5096558;28;20254;-66
2023/02/03 10:03:44;;;;;;;3.47;1.55;;;16.80;55.00;;;;;;5077393;28;20303;-69
2023/02/03 10:06:32;;;;;;;1.98;1.00;;;16.80;55.00;;;;;;5093215;28;20167;-70
2023/02/03 10:09:06;;;;;;;4.57;1.38;;;16.80;55.00;;;;;;5081997;28;20186;-70
2023/02/03 10:11:55;;;;;;;1.55;1.00;;;16.80;55.00;;;;;;5115077;28;20164;-70
2023/02/03 10:14:32;;;;;;;3.40;1.55;;;16.80;55.00;;;;;;5114102;28;20217;-69
2023/02/03 10:17:27;;;;;;;2.05;1.30;;;16.80;55.50;;;;;;5114922;28;20700;-71
2023/02/03 10:20:18;;;;;;;2.80;1.33;;;16.80;54.90;;;;;;5114796;28;20225;-70
2023/02/03 10:22:46;;;;;;;2.55;1.17;;;16.70;54.80;;;;;;5080431;28;20177;-70
2023/02/03 10:25:53;;;;;;;2.75;1.13;;;16.70;54.90;;;;;;5096676;28;20624;-70
2023/02/03 10:28:20;;;;;;;2.47;1.08;;;16.80;54.80;;;;;;5098891;28;20181;-70
2023/02/03 10:30:57;;;;;;;1.73;1.05;;;16.80;54.90;;;;;;5114355;28;20299;-69
2023/02/03 10:33:30;;;;;;;3.75;1.35;;;16.80;54.90;;;;;;5114113;28;20176;-71
2023/02/03 10:36:04;;;;;;;2.40;1.10;;;16.80;54.80;;;;;;5113913;28;20251;-70
2023/02/03 10:38:45;;;;;;;3.25;1.20;;;16.90;54.80;;;;;;5096268;28;20173;-70
2023/02/03 10:41:10;;;;;;;2.45;1.38;;;16.80;54.70;;;;;;5113860;28;20177;-70
2023/02/03 10:43:51;;;;;;;4.47;1.20;;;16.90;54.70;;;;;;5114236;28;20184;-70
2023/02/03 10:46:28;;;;;;;2.28;1.00;;;16.80;54.60;;;;;;5112397;28;20176;-68
2023/02/03 10:48:54;;;;;;;3.03;0.93;;;16.80;54.60;;;;;;5095471;28;20176;-69
2023/02/03 10:51:21;;;;;;;2.97;1.10;;;16.80;54.70;;;;;;5113757;28;20177;-68
2023/02/03 10:53:46;;;;;;;2.60;1.42;;;16.80;54.70;;;;;;5114129;28;20599;-69
2023/02/03 10:56:13;;;;;;;2.92;1.30;;;16.80;54.70;;;;;;5113450;28;20241;-69
2023/02/03 10:58:45;;;;;;;2.88;1.30;;;16.80;54.70;;;;;;5113799;28;20173;-69
2023/02/03 11:01:12;;;;;;;4.22;1.23;;;16.80;54.60;;;;;;5114497;28;20206;-69
2023/02/03 11:04:04;;;;;;;4.10;1.17;;;16.90;54.70;;;;;;5074849;28;20178;-70
2023/02/03 11:06:30;;;;;;;2.90;1.40;;;16.90;54.60;;;;;;5089139;28;20277;-70
2023/02/03 11:08:56;;;;;;;2.25;1.20;;;16.90;54.60;;;;;;5076100;28;20174;-70
2023/02/03 11:11:31;;;;;;;1.92;1.20;;;16.90;54.60;;;;;;5074963;28;20178;-69
2023/02/03 11:14:11;;;;;;;2.22;1.30;;;16.80;54.60;;;;;;5093661;28;20533;-69
2023/02/03 11:16:36;;;;;;;1.92;1.20;;;16.80;54.70;;;;;;5092688;28;20971;-70
2023/02/03 11:19:03;;;;;;;2.08;1.10;;;16.80;54.70;;;;;;5094384;28;20222;-69
2023/02/03 11:21:29;;;;;;;1.83;1.15;;;16.80;54.70;;;;;;5095177;28;20258;-70
2023/02/03 11:24:00;;;;;;;2.20;1.08;;;16.80;54.70;;;;;;5113044;28;20576;-69
2023/02/03 11:26:34;;;;;;;1.98;1.13;;;16.80;54.70;;;;;;5113512;28;20176;-72
2023/02/03 11:29:00;;;;;;;1.30;1.00;;;16.80;54.70;;;;;;5113795;28;20188;-69
2023/02/03 11:31:28;;;;;;;2.13;1.10;;;16.80;54.60;;;;;;5094429;28;20176;-70
2023/02/03 11:34:05;;;;;;;2.47;1.50;;;16.90;54.60;;;;;;5095311;28;20513;-71
2023/02/03 11:36:32;;;;;;;1.10;0.93;;;16.90;54.60;;;;;;5113197;28;20208;-69
2023/02/03 11:39:28;;;;;;;1.85;0.90;;;16.90;54.60;;;;;;5094580;28;20169;-68
2023/02/03 11:41:54;;;;;;;2.67;1.20;;;16.90;54.60;;;;;;5092067;28;20192;-70
2023/02/03 11:44:22;;;;;;;2.30;1.30;;;16.80;55.20;;;;;;5094210;28;20165;-69
2023/02/03 11:46:49;;;;;;;3.08;1.30;;;16.80;54.70;;;;;;5112451;28;20242;-67
2023/02/03 11:49:37;;;;;;;3.80;1.42;;;16.80;54.70;;;;;;5095391;28;20169;-69
2023/02/03 11:52:05;;;;;;;1.77;1.13;;;16.80;54.70;;;;;;5079843;28;20252;-69
2023/02/03 11:55:00;;;;;;;2.70;1.48;;;16.80;54.80;;;;;;5112652;28;20591;-71
2023/02/03 11:57:38;;;;;;;1.83;1.20;;;16.80;54.70;;;;;;5022858;28;20220;-69
2023/02/03 12:00:41;;;;;;;2.25;1.25;;;16.90;54.80;;;;;;5112569;28;20172;-67
2023/02/03 12:03:20;;;;;;;3.22;1.40;;;16.80;54.60;;;;;;5113033;28;20173;-69
2023/02/03 12:06:16;;;;;;;2.30;0.98;;;16.80;54.90;;;;;;5094661;28;20684;-72
2023/02/03 12:09:09;;;;;;;1.98;1.15;;;16.80;55.50;;;;;;5083347;28;20183;-69
2023/02/03 12:11:39;;;;;;;3.65;1.27;;;16.80;55.00;;;;;;5113163;28;20177;-68
2023/02/03 12:14:10;;;;;;;3.33;1.25;;;16.90;55.10;;;;;;5094136;28;20666;-69
2023/02/03 12:17:07;;;;;;;1.50;0.95;;;17.00;55.00;;;;;;5094961;28;20239;-69
2023/02/03 12:19:59;;;;;;;2.33;1.23;;;17.10;55.00;;;;;;5073646;28;20257;-70
2023/02/03 12:22:47;;;;;;;3.10;1.10;;;17.40;54.70;;;;;;5073764;28;20582;-71
2023/02/03 12:25:24;;;;;;;2.35;1.00;;;17.60;54.50;;;;;;5097813;28;20650;-70
2023/02/03 12:28:08;;;;;;;3.45;1.40;;;17.90;53.90;;;;;;5112176;28;20172;-71
2023/02/03 12:30:37;;;;;;;1.08;0.93;;;18.10;53.60;;;;;;5094725;28;20362;-71
2023/02/03 12:33:11;;;;;;;1.75;0.95;;;18.20;53.40;;;;;;5113038;28;20192;-70
2023/02/03 12:36:11;;;;;;;1.48;0.93;;;18.40;53.20;;;;;;5093613;28;20846;-74
2023/02/03 12:38:41;;;;;;;2.72;1.00;;;18.50;52.90;;;;;;5107348;28;20253;-65
2023/02/03 12:41:13;;;;;;;1.40;1.20;;;18.50;52.90;;;;;;5112484;28;20185;-65
2023/02/03 12:43:41;;;;;;;2.08;1.00;;;18.70;53.50;;;;;;5112920;28;20176;-67
2023/02/03 12:46:28;;;;;;;2.72;1.10;;;18.80;52.60;;;;;;5095487;28;20538;-65
2023/02/03 12:49:03;;;;;;;1.15;0.90;;;18.90;52.50;;;;;;5112228;28;20549;-64
2023/02/03 12:51:39;;;;;;;3.75;1.00;;;19.00;52.40;;;;;;5094857;28;20174;-65
2023/02/03 12:54:11;;;;;;;2.70;0.90;;;19.10;52.20;;;;;;5112652;28;20696;-65
2023/02/03 12:56:39;;;;;;;1.40;0.90;;;19.10;52.20;;;;;;5115551;28;20204;-65
2023/02/03 12:59:31;;;;;;;2.72;1.00;;;19.10;52.10;;;;;;5116632;28;20219;-66
2023/02/03 13:02:02;;;;;;;1.48;0.60;;;19.10;52.10;;;;;;5111134;28;20531;-68
2023/02/03 13:04:34;;;;;;;2.08;1.00;;;19.10;52.20;;;;;;5081088;28;20168;-67